Time;durP1;ratioP1;P1;durP2;ratioP2;P2;SDS_P1;SDS_P2;PMS_P1;PMS_P2;Temp;Humidity;BMP_temperature;BMP_pressure;BME280_temperature;BME280_humidity;BME280_pressure;Samples;Min_cycle;Max_cycle;Signal;HPM_P1;HPM_P2
2022/03/30 00:01:57;;;;;;;41.88;9.88;;;;;;;9.01;58.96;94404.28;5101463;28;20047;-75
2022/03/30 00:04:23;;;;;;;48.38;11.25;;;;;;;8.91;59.40;94414.94;5086197;28;20418;-74
2022/03/30 00:06:49;;;;;;;40.20;10.48;;;;;;;8.95;59.03;94408.03;5105661;28;20043;-74
2022/03/30 00:09:14;;;;;;;46.33;10.65;;;;;;;8.84;59.56;94405.56;5089295;28;20035;-74
2022/03/30 00:11:40;;;;;;;38.45;10.85;;;;;;;8.75;59.97;94407.28;5089028;28;20046;-75
2022/03/30 00:14:05;;;;;;;44.08;10.88;;;;;;;8.74;59.51;94400.47;5088762;28;20589;-74
2022/03/30 00:16:33;;;;;;;35.60;10.18;;;;;;;8.74;59.36;94397.84;5089495;28;20119;-74
2022/03/30 00:18:59;;;;;;;51.92;10.52;;;;;;;8.72;59.83;94392.13;5094237;28;20044;-75
2022/03/30 00:21:25;;;;;;;61.92;11.48;;;;;;;8.61;60.09;94385.47;5099363;28;20066;-75
2022/03/30 00:23:52;;;;;;;42.65;11.25;;;;;;;8.57;60.34;94389.69;5107400;28;20497;-74
2022/03/30 00:26:19;;;;;;;40.70;10.90;;;;;;;8.59;60.14;94387.56;5100615;28;20039;-74
2022/03/30 00:28:44;;;;;;;47.95;11.48;;;;;;;8.51;60.67;94380.34;5107115;28;20104;-74
2022/03/30 00:31:11;;;;;;;36.88;11.05;;;;;;;8.49;61.10;94376.16;5094860;28;20040;-74
2022/03/30 00:33:37;;;;;;;51.00;12.18;;;;;;;8.46;61.67;94374.13;5070909;28;20044;-75
2022/03/30 00:36:03;;;;;;;49.63;11.02;;;;;;;8.45;61.29;94362.06;5088675;28;20032;-74
2022/03/30 00:38:28;;;;;;;38.85;10.48;;;;;;;8.42;61.73;94362.59;5089124;28;20048;-74
2022/03/30 00:40:54;;;;;;;41.10;11.30;;;;;;;8.41;61.44;94360.25;5088734;28;20048;-75
2022/03/30 00:43:19;;;;;;;52.30;12.07;;;;;;;8.42;62.00;94362.59;5088971;28;20040;-75
2022/03/30 00:45:45;;;;;;;43.25;11.82;;;;;;;8.39;61.74;94363.19;5083674;28;20135;-74
2022/03/30 00:48:10;;;;;;;40.45;10.93;;;;;;;8.39;61.76;94363.19;5093703;28;20039;-74
2022/03/30 00:50:36;;;;;;;40.60;11.95;;;;;;;8.41;61.68;94361.03;5105043;28;20047;-74
2022/03/30 00:53:02;;;;;;;38.97;11.02;;;;;;;8.39;62.29;94357.94;5088267;28;20036;-74
2022/03/30 00:55:28;;;;;;;39.22;11.48;;;;;;;8.31;62.00;94350.69;5088972;28;20169;-74
2022/03/30 00:57:55;;;;;;;46.25;10.52;;;;;;;8.33;62.92;94348.56;5091955;28;20520;-75
2022/03/30 01:00:21;;;;;;;46.00;11.48;;;;;;;8.35;63.00;94346.44;5074954;28;20097;-75
2022/03/30 01:02:49;;;;;;;42.55;11.65;;;;;;;8.32;62.39;94352.25;5097390;28;20044;-75
2022/03/30 01:05:16;;;;;;;49.38;12.02;;;;;;;8.28;63.29;94341.53;5094499;28;20039;-75
2022/03/30 01:07:41;;;;;;;53.60;11.25;;;;;;;8.23;64.63;94343.44;5113099;28;20036;-75
2022/03/30 01:10:09;;;;;;;52.83;11.40;;;;;;;7.96;66.81;94344.84;5103690;28;20047;-75
2022/03/30 01:12:38;;;;;;;59.53;12.32;;;;;;;7.77;67.34;94342.97;5078906;28;20115;-75
2022/03/30 01:15:05;;;;;;;39.53;11.90;;;;;;;7.86;66.22;94344.94;5113173;28;20115;-75
2022/03/30 01:17:31;;;;;;;41.80;12.15;;;;;;;8.06;65.06;94347.34;5094507;28;20051;-75
2022/03/30 01:19:56;;;;;;;45.90;11.25;;;;;;;8.18;64.81;94340.91;5091320;28;20417;-75
2022/03/30 01:22:23;;;;;;;54.85;15.13;;;;;;;8.26;64.81;94340.25;5099676;28;20509;-75
2022/03/30 01:24:49;;;;;;;52.47;11.85;;;;;;;8.21;64.61;94338.50;5110170;28;20040;-74
2022/03/30 01:27:15;;;;;;;45.00;12.05;;;;;;;8.30;64.97;94343.88;5097173;28;20051;-75
2022/03/30 01:32:26;;;;;;;46.00;12.97;;;;;;;8.32;63.89;94341.78;5091305;28;20047;-75
2022/03/30 01:35:01;;;;;;;37.28;11.07;;;;;;;8.28;63.43;94327.66;5092013;28;20123;-75
2022/03/30 01:37:29;;;;;;;43.47;12.80;;;;;;;8.25;63.70;94329.00;5074226;28;20048;-75
2022/03/30 01:40:00;;;;;;;40.97;11.68;;;;;;;8.27;64.02;94324.25;5092010;28;20097;-75
2022/03/30 01:42:27;;;;;;;52.10;12.00;;;;;;;8.30;64.05;94315.06;5105590;28;20105;-75
2022/03/30 01:44:53;;;;;;;44.10;11.98;;;;;;;8.26;64.04;94308.81;5101059;28;20047;-75
2022/03/30 01:47:19;;;;;;;45.70;12.55;;;;;;;8.32;64.73;94312.94;5092095;28;20048;-75
2022/03/30 01:49:46;;;;;;;55.40;12.40;;;;;;;8.38;64.68;94309.19;5091896;28;20056;-75
2022/03/30 01:52:13;;;;;;;50.78;11.90;;;;;;;8.20;66.72;94309.94;5091489;28;20241;-75
2022/03/30 01:54:41;;;;;;;62.15;12.93;;;;;;;7.93;69.59;94298.25;5104247;28;20097;-75
2022/03/30 01:57:08;;;;;;;52.45;12.35;;;;;;;8.03;67.59;94298.13;5092782;28;20055;-75
2022/03/30 01:59:35;;;;;;;48.60;11.65;;;;;;;8.08;67.06;94295.44;5091873;28;20065;-75
2022/03/30 02:02:02;;;;;;;59.38;12.60;;;;;;;8.16;67.96;94296.66;5109518;28;20039;-75
2022/03/30 02:04:28;;;;;;;59.13;12.77;;;;;;;8.28;67.32;94293.59;5105500;28;20070;-75
2022/03/30 02:06:54;;;;;;;49.58;12.13;;;;;;;8.24;66.76;94292.59;5104803;28;20044;-75
2022/03/30 02:09:20;;;;;;;54.80;12.07;;;;;;;8.26;65.48;94298.31;5102354;28;20085;-75
2022/03/30 02:11:45;;;;;;;44.45;12.63;;;;;;;8.21;66.72;94296.56;5091652;28;20056;-75
2022/03/30 02:14:11;;;;;;;50.90;12.60;;;;;;;8.24;65.65;94297.84;5091017;28;20499;-75
2022/03/30 02:16:36;;;;;;;49.58;13.50;;;;;;;8.38;65.42;94298.69;5073007;28;20047;-75
2022/03/30 02:19:03;;;;;;;43.65;11.95;;;;;;;8.41;65.67;94282.38;5091331;28;20044;-75
2022/03/30 02:21:28;;;;;;;47.58;11.45;;;;;;;8.49;66.06;94279.16;5091465;28;20048;-75
2022/03/30 02:23:54;;;;;;;48.80;12.27;;;;;;;8.47;66.36;94276.03;5101785;28;20039;-74
2022/03/30 02:26:20;;;;;;;47.35;12.85;;;;;;;8.38;67.33;94266.47;5102327;28;20040;-75
2022/03/30 02:28:52;;;;;;;42.90;12.32;;;;;;;8.26;67.89;94269.50;5107120;28;20036;-75
2022/03/30 02:31:20;;;;;;;46.63;12.68;;;;;;;8.21;67.36;94266.97;5098703;28;20157;-75
2022/03/30 02:33:46;;;;;;;53.22;12.35;;;;;;;8.28;66.86;94262.91;5091034;28;20036;-75
2022/03/30 02:36:13;;;;;;;46.45;12.73;;;;;;;8.20;68.63;94254.91;5079899;28;20040;-75
2022/03/30 02:38:39;;;;;;;48.80;13.00;;;;;;;8.24;68.03;94255.91;5089726;28;20067;-75
2022/03/30 02:41:05;;;;;;;37.83;12.13;;;;;;;8.24;68.22;94245.44;5100961;28;20461;-75
2022/03/30 02:43:33;;;;;;;38.28;12.30;;;;;;;8.12;67.98;94244.00;5078515;28;20074;-75
2022/03/30 02:45:58;;;;;;;43.58;11.85;;;;;;;8.09;68.67;94234.09;5102772;28;20043;-75
2022/03/30 02:48:28;;;;;;;52.38;11.63;;;;;;;8.01;69.53;94236.59;5085192;28;20043;-75
2022/03/30 02:51:04;;;;;;;57.60;12.00;;;;;;;7.89;70.59;94229.16;5103092;28;20091;-75
2022/03/30 02:53:30;;;;;;;48.92;12.38;;;;;;;8.05;69.47;94227.88;5110700;28;20504;-75
2022/03/30 02:55:56;;;;;;;48.10;12.48;;;;;;;8.03;69.82;94219.53;5102378;28;20444;-75
2022/03/30 02:58:23;;;;;;;45.08;13.02;;;;;;;7.92;71.44;94228.59;5091277;28;20098;-74
2022/03/30 03:00:49;;;;;;;45.60;13.32;;;;;;;8.03;70.14;94219.53;5104098;28;20539;-74
2022/03/30 03:03:15;;;;;;;48.05;11.88;;;;;;;7.79;72.82;94209.91;5102690;28;20043;-75
2022/03/30 03:05:42;;;;;;;43.25;13.38;;;;;;;7.65;73.00;94214.28;5102209;28;20096;-75
2022/03/30 03:08:09;;;;;;;44.60;13.05;;;;;;;7.71;72.40;94218.38;5102792;28;20493;-75
2022/03/30 03:10:40;;;;;;;44.75;12.50;;;;;;;7.95;71.00;94207.06;5111055;28;20066;-75
2022/03/30 03:13:05;;;;;;;40.25;11.88;;;;;;;7.89;69.91;94206.34;5092503;28;20059;-75
2022/03/30 03:15:33;;;;;;;44.13;12.68;;;;;;;8.04;69.28;94200.09;5099808;28;20648;-75
2022/03/30 03:18:01;;;;;;;53.63;12.57;;;;;;;8.11;69.43;94195.28;5110817;28;20167;-74
2022/03/30 03:20:28;;;;;;;49.35;12.60;;;;;;;8.03;69.21;94198.56;5106832;28;20044;-75
2022/03/30 03:22:54;;;;;;;51.58;12.60;;;;;;;8.09;68.57;94197.44;5104445;28;20043;-75
2022/03/30 03:25:20;;;;;;;33.85;10.93;;;;;;;8.21;68.22;94196.97;5099546;28;20044;-74
2022/03/30 03:27:45;;;;;;;50.67;12.32;;;;;;;8.18;68.18;94199.41;5089997;28;20665;-74
2022/03/30 03:30:11;;;;;;;47.92;12.75;;;;;;;8.12;68.36;94186.38;5090197;28;20051;-74
2022/03/30 03:32:37;;;;;;;43.95;11.57;;;;;;;8.00;68.56;94193.09;5097662;28;20043;-74
2022/03/30 03:35:03;;;;;;;56.00;12.85;;;;;;;8.21;68.06;94183.09;5098248;28;20035;-75
2022/03/30 03:37:29;;;;;;;50.55;13.32;;;;;;;8.23;67.25;94178.34;5089983;28;20281;-75
2022/03/30 03:39:55;;;;;;;51.40;13.30;;;;;;;8.07;67.64;94172.56;5090077;28;20489;-75
2022/03/30 03:42:21;;;;;;;50.28;12.90;;;;;;;8.12;67.98;94170.66;5093765;28;20036;-75
2022/03/30 03:44:47;;;;;;;44.97;12.25;;;;;;;8.06;67.86;94171.00;5110168;28;20568;-74
2022/03/30 03:47:12;;;;;;;42.50;11.80;;;;;;;8.05;67.68;94170.22;5095429;28;20093;-74
2022/03/30 03:49:38;;;;;;;41.53;12.52;;;;;;;8.08;67.94;94174.91;5099711;28;20556;-74
2022/03/30 03:52:05;;;;;;;45.42;11.68;;;;;;;8.10;67.81;94167.53;5089898;28;20062;-74
2022/03/30 03:54:31;;;;;;;39.25;11.63;;;;;;;8.03;67.95;94164.50;5109824;28;20048;-74
2022/03/30 03:56:56;;;;;;;50.88;12.63;;;;;;;8.05;67.87;94165.00;5101235;28;20417;-75
2022/03/30 03:59:22;;;;;;;54.15;11.63;;;;;;;8.20;66.68;94155.34;5087631;27;20043;-74
2022/03/30 04:01:47;;;;;;;48.90;11.90;;;;;;;8.26;65.90;94154.19;5119941;27;20040;-74
2022/03/30 04:04:13;;;;;;;39.90;11.57;;;;;;;8.32;65.83;94148.56;5079693;28;20059;-75
2022/03/30 04:06:38;;;;;;;58.67;13.63;;;;;;;8.29;66.31;94138.66;5097040;28;20210;-74
2022/03/30 04:09:04;;;;;;;45.30;12.05;;;;;;;8.30;66.00;94134.19;5109809;28;20516;-75
2022/03/30 04:11:30;;;;;;;60.35;13.70;;;;;;;8.25;65.54;94131.69;5103496;28;20460;-74
2022/03/30 04:13:56;;;;;;;53.67;11.85;;;;;;;8.25;65.80;94136.91;5090323;28;20093;-74
2022/03/30 04:16:22;;;;;;;49.15;13.60;;;;;;;8.24;66.44;94133.50;5079217;28;20087;-75
2022/03/30 04:18:47;;;;;;;50.67;11.95;;;;;;;8.28;65.58;94131.09;5096886;28;20036;-75
2022/03/30 04:21:13;;;;;;;50.25;13.05;;;;;;;8.25;66.06;94126.44;5099142;28;20111;-75
2022/03/30 04:23:39;;;;;;;49.85;12.95;;;;;;;8.24;65.24;94124.88;5088790;28;20047;-74
2022/03/30 04:26:04;;;;;;;41.30;12.25;;;;;;;8.23;65.54;94128.56;5076109;28;20603;-75
2022/03/30 04:28:30;;;;;;;53.38;13.82;;;;;;;8.25;65.62;94121.97;5088870;28;20070;-74
2022/03/30 04:30:56;;;;;;;54.75;12.43;;;;;;;8.22;65.52;94121.78;5070783;28;20485;-75
2022/03/30 04:33:21;;;;;;;38.42;11.65;;;;;;;8.26;65.15;94125.34;5087231;28;20118;-74
2022/03/30 04:35:47;;;;;;;53.92;13.80;;;;;;;8.23;65.33;94123.31;5082840;28;20043;-75
2022/03/30 04:38:14;;;;;;;52.40;12.60;;;;;;;8.25;64.66;94131.69;5097479;28;20047;-75
2022/03/30 04:40:40;;;;;;;38.28;12.50;;;;;;;8.29;64.95;94132.66;5093535;28;20075;-75
2022/03/30 04:43:06;;;;;;;41.88;11.98;;;;;;;8.23;65.24;94133.78;5096156;28;20070;-75
2022/03/30 04:45:32;;;;;;;48.53;13.02;;;;;;;8.24;64.44;94124.88;5082226;28;20040;-75
2022/03/30 04:47:57;;;;;;;45.80;11.80;;;;;;;8.25;64.34;94126.44;5088891;28;20043;-75
2022/03/30 04:50:24;;;;;;;46.63;11.18;;;;;;;8.38;64.21;94130.91;5088795;28;20040;-75
2022/03/30 04:52:51;;;;;;;41.88;12.50;;;;;;;8.43;63.72;94122.97;5089214;28;20119;-75
2022/03/30 04:55:16;;;;;;;40.88;11.30;;;;;;;8.25;63.97;94129.06;5102558;28;20036;-75
2022/03/30 04:57:42;;;;;;;47.28;11.40;;;;;;;8.34;64.00;94124.69;5096109;28;20089;-75
2022/03/30 05:00:11;;;;;;;47.63;11.68;;;;;;;8.45;63.61;94126.09;5080506;28;20043;-75
2022/03/30 05:02:38;;;;;;;51.10;11.90;;;;;;;8.48;63.49;94125.53;5109108;28;20127;-75
2022/03/30 05:05:05;;;;;;;40.20;11.32;;;;;;;8.42;63.15;94131.09;5103420;28;20048;-75
2022/03/30 05:07:30;;;;;;;37.03;11.07;;;;;;;8.36;63.33;94122.56;5098330;28;20044;-75
2022/03/30 05:09:57;;;;;;;55.00;11.23;;;;;;;8.32;63.43;94122.38;5088791;28;20426;-75
2022/03/30 05:12:24;;;;;;;51.33;12.15;;;;;;;8.47;63.05;94123.97;5100432;28;20063;-75
2022/03/30 05:14:49;;;;;;;38.17;11.32;;;;;;;8.51;63.24;94118.16;5096064;28;20517;-74
2022/03/30 05:17:15;;;;;;;45.28;12.70;;;;;;;8.49;62.87;94121.84;5070596;28;20055;-74
2022/03/30 05:19:41;;;;;;;54.53;11.68;;;;;;;8.53;62.76;94123.88;5102839;28;20051;-74
2022/03/30 05:22:07;;;;;;;39.15;11.50;;;;;;;8.58;62.78;94119.31;5091022;28;20040;-74
2022/03/30 05:24:32;;;;;;;49.42;12.25;;;;;;;8.42;62.94;94121.41;5085942;28;20052;-76
2022/03/30 05:26:58;;;;;;;44.10;12.00;;;;;;;8.31;63.69;94120.03;5093586;28;20501;-75
2022/03/30 05:29:23;;;;;;;45.70;13.65;;;;;;;8.39;63.77;94119.38;5088345;28;20087;-75
2022/03/30 05:31:49;;;;;;;54.05;12.48;;;;;;;8.58;62.76;94121.19;5098977;28;20131;-75
2022/03/30 05:34:15;;;;;;;45.17;12.35;;;;;;;8.42;63.52;94118.00;5083313;28;20062;-74
2022/03/30 05:36:41;;;;;;;46.78;11.38;;;;;;;8.37;63.79;94113.63;5088789;28;20040;-75
2022/03/30 05:39:06;;;;;;;36.28;11.60;;;;;;;8.33;64.97;94117.88;5076146;28;20082;-74
2022/03/30 05:41:33;;;;;;;43.65;11.88;;;;;;;8.32;64.94;94116.34;5100326;28;20173;-75
2022/03/30 05:43:59;;;;;;;41.20;10.63;;;;;;;8.31;65.44;94112.94;5091180;28;20044;-75
2022/03/30 05:46:25;;;;;;;44.75;12.20;;;;;;;8.29;65.95;94116.94;5092087;28;20050;-75
2022/03/30 05:48:51;;;;;;;41.30;11.13;;;;;;;8.33;67.14;94117.88;5074020;28;20149;-75
2022/03/30 05:51:16;;;;;;;60.30;11.98;;;;;;;8.43;65.40;94117.72;5081429;28;20050;-75
2022/03/30 05:53:42;;;;;;;61.67;12.52;;;;;;;8.42;64.61;94121.41;5108977;28;20048;-75
2022/03/30 05:56:07;;;;;;;51.60;12.90;;;;;;;8.45;63.62;94120.88;5074995;28;20047;-75
2022/03/30 05:58:33;;;;;;;50.25;11.77;;;;;;;8.58;63.38;94123.81;5092118;28;20126;-75
2022/03/30 06:00:58;;;;;;;47.30;12.23;;;;;;;8.63;63.40;94121.06;5080881;28;20389;-75
2022/03/30 06:03:24;;;;;;;40.25;12.35;;;;;;;8.69;63.13;94113.88;5109805;28;20497;-75
2022/03/30 06:05:51;;;;;;;45.75;11.38;;;;;;;8.70;64.34;94126.69;5103060;28;20544;-75
2022/03/30 06:08:17;;;;;;;41.85;11.98;;;;;;;8.76;63.10;94125.53;5099829;28;20071;-76
2022/03/30 06:10:42;;;;;;;46.50;13.85;;;;;;;8.99;61.42;94123.00;5074188;28;20462;-75
2022/03/30 06:13:08;;;;;;;52.50;13.10;;;;;;;9.05;61.79;94115.81;5109726;28;20048;-76
2022/03/30 06:15:34;;;;;;;41.47;12.02;;;;;;;9.04;60.95;94125.53;5091928;28;20043;-75
2022/03/30 06:17:59;;;;;;;49.20;12.80;;;;;;;9.09;60.94;94122.81;5091618;28;20509;-76
2022/03/30 06:20:26;;;;;;;40.95;11.52;;;;;;;9.05;62.26;94119.22;5101857;28;20124;-76
2022/03/30 06:22:53;;;;;;;42.17;11.80;;;;;;;9.14;61.40;94117.47;5110428;28;20043;-76
2022/03/30 06:25:24;;;;;;;40.42;12.55;;;;;;;9.30;60.68;94117.16;5086289;28;20062;-76
2022/03/30 06:27:51;;;;;;;43.00;14.73;;;;;;;9.45;59.53;94121.28;5091188;28;20048;-76
2022/03/30 06:30:17;;;;;;;51.85;13.20;;;;;;;9.41;60.13;94113.25;5076030;28;20048;-76
2022/03/30 06:32:42;;;;;;;54.38;13.38;;;;;;;9.39;60.28;94125.88;5087385;28;20040;-76
2022/03/30 06:35:08;;;;;;;55.08;14.20;;;;;;;9.46;60.04;94125.47;5110963;28;20036;-76
2022/03/30 06:37:34;;;;;;;44.10;12.88;;;;;;;9.60;59.41;94126.22;5091661;28;20775;-76
2022/03/30 06:39:59;;;;;;;40.22;13.20;;;;;;;9.75;59.61;94122.47;5111608;28;20051;-74
2022/03/30 06:42:25;;;;;;;44.88;12.93;;;;;;;9.93;58.97;94127.84;5093203;28;20040;-75
2022/03/30 06:44:51;;;;;;;46.95;12.43;;;;;;;10.05;58.67;94128.09;5104259;28;20043;-76
2022/03/30 06:47:16;;;;;;;55.95;12.73;;;;;;;10.10;58.63;94127.97;5067930;28;20053;-76
2022/03/30 06:49:42;;;;;;;50.00;12.32;;;;;;;10.15;57.93;94125.22;5108139;28;20044;-76
2022/03/30 06:52:09;;;;;;;46.05;12.20;;;;;;;10.21;57.37;94118.78;5088578;28;20040;-77
2022/03/30 06:54:37;;;;;;;46.72;11.98;;;;;;;10.25;57.19;94123.44;5077235;28;20555;-75
2022/03/30 06:57:04;;;;;;;44.22;12.55;;;;;;;10.31;57.30;94122.97;5095887;28;20039;-75
2022/03/30 06:59:29;;;;;;;45.78;12.40;;;;;;;10.13;58.32;94122.13;5076247;28;20541;-76
2022/03/30 07:01:55;;;;;;;40.33;11.48;;;;;;;10.36;57.64;94116.88;5096891;28;20069;-76
2022/03/30 07:04:22;;;;;;;40.45;10.30;;;;;;;10.58;56.08;94114.16;5116406;27;20484;-76
2022/03/30 07:12:17;;;;;;;49.80;11.48;;;;;;;10.84;55.48;94116.13;5099673;28;20040;-76
2022/03/30 07:14:46;;;;;;;54.33;10.93;;;;;;;10.82;55.61;94120.94;5103011;28;20036;-76
2022/03/30 07:17:12;;;;;;;42.92;10.98;;;;;;;10.85;55.63;94115.06;5118391;27;20032;-77
2022/03/30 07:19:38;;;;;;;43.10;10.10;;;;;;;10.96;55.84;94109.50;5084244;28;20066;-76
2022/03/30 07:22:04;;;;;;;62.53;11.50;;;;;;;10.92;56.34;94109.34;5106395;28;20040;-76
2022/03/30 07:24:30;;;;;;;50.58;10.90;;;;;;;11.00;55.83;94111.22;5102509;28;20054;-79
2022/03/30 07:26:55;;;;;;;53.00;10.10;;;;;;;10.99;56.33;94120.22;5107896;28;20618;-78
2022/03/30 07:29:21;;;;;;;56.78;10.50;;;;;;;11.04;56.51;94114.03;5101896;28;20077;-77
2022/03/30 07:31:47;;;;;;;51.30;11.45;;;;;;;11.13;56.71;94103.53;5101601;28;20050;-75
2022/03/30 07:34:12;;;;;;;53.35;10.93;;;;;;;11.22;56.00;94107.72;5090795;28;20051;-76
2022/03/30 07:36:38;;;;;;;55.83;9.77;;;;;;;11.23;55.72;94109.28;5102702;28;20040;-77
2022/03/30 07:39:04;;;;;;;41.65;9.95;;;;;;;11.14;56.61;94105.84;5076977;28;20123;-77
2022/03/30 07:41:29;;;;;;;47.15;9.90;;;;;;;11.10;56.45;94099.63;5089870;28;20115;-76
2022/03/30 07:43:55;;;;;;;68.75;11.00;;;;;;;11.14;56.86;94103.22;5100159;28;20031;-76
2022/03/30 07:46:20;;;;;;;52.78;9.23;;;;;;;11.03;56.92;94113.25;5109670;28;20043;-76
2022/03/30 07:48:46;;;;;;;51.42;10.68;;;;;;;11.13;56.35;94098.25;5108986;28;20047;-77
2022/03/30 07:51:12;;;;;;;48.10;9.57;;;;;;;11.13;57.00;94096.38;5100049;28;20485;-75
2022/03/30 07:53:38;;;;;;;42.33;9.60;;;;;;;11.13;57.08;94104.28;5080414;28;20054;-75
2022/03/30 07:56:04;;;;;;;47.15;11.35;;;;;;;11.00;57.04;94100.69;5101758;28;20036;-76
2022/03/30 07:58:29;;;;;;;49.53;9.65;;;;;;;11.15;56.76;94102.13;5097926;28;20439;-77
2022/03/30 08:00:56;;;;;;;58.47;11.82;;;;;;;11.31;56.68;94104.34;5073075;27;20047;-76
2022/03/30 08:03:21;;;;;;;52.92;10.93;;;;;;;11.18;56.77;94096.25;5092300;28;20039;-77
2022/03/30 08:05:47;;;;;;;46.67;9.52;;;;;;;11.31;57.41;94104.34;5090974;28;20515;-74
2022/03/30 08:08:13;;;;;;;46.63;10.73;;;;;;;11.29;56.63;94101.22;5102273;28;20043;-75
2022/03/30 08:10:39;;;;;;;54.58;9.68;;;;;;;11.40;56.73;94107.75;5091532;28;20534;-76
2022/03/30 08:13:05;;;;;;;51.10;9.43;;;;;;;11.35;56.70;94105.25;5097061;28;20036;-77
2022/03/30 08:15:32;;;;;;;47.20;10.32;;;;;;;11.41;57.23;94094.25;5096247;28;20485;-76
2022/03/30 08:17:57;;;;;;;53.13;10.95;;;;;;;11.42;56.70;94090.56;5091369;28;20043;-76
2022/03/30 08:23:09;;;;;;;57.22;11.63;;;;;;;11.55;56.87;94096.75;5088745;28;20094;-73
2022/03/30 08:25:35;;;;;;;73.68;12.90;;;;;;;11.60;56.67;94096.59;5089911;28;20046;-76
2022/03/30 08:28:02;;;;;;;53.90;11.48;;;;;;;11.80;55.83;94099.69;5089417;28;20036;-77
2022/03/30 08:30:28;;;;;;;65.38;10.85;;;;;;;11.65;56.66;94097.53;5094921;28;20461;-77
2022/03/30 08:32:54;;;;;;;49.00;9.52;;;;;;;11.70;56.19;94094.75;5093104;28;20049;-77
2022/03/30 08:35:21;;;;;;;44.40;9.07;;;;;;;11.67;56.14;94100.63;5077091;28;20055;-77
2022/03/30 08:37:46;;;;;;;60.38;11.75;;;;;;;11.47;57.26;94097.53;5099911;28;20698;-77
2022/03/30 08:40:13;;;;;;;58.13;10.50;;;;;;;11.53;56.51;94093.66;5098013;28;20044;-77
2022/03/30 08:42:40;;;;;;;52.42;10.45;;;;;;;11.52;56.92;94094.75;5089467;28;20055;-76
2022/03/30 08:45:08;;;;;;;65.53;11.55;;;;;;;11.66;57.13;94093.81;5088994;28;20040;-77
2022/03/30 08:47:35;;;;;;;57.25;9.98;;;;;;;11.70;56.57;94100.03;5097871;28;20078;-76
2022/03/30 08:50:03;;;;;;;62.70;10.75;;;;;;;11.69;57.09;94098.47;5071407;28;20039;-74
2022/03/30 08:52:29;;;;;;;52.40;10.25;;;;;;;11.63;57.74;94094.44;5071167;28;20044;-77
2022/03/30 08:54:57;;;;;;;46.60;10.23;;;;;;;11.66;57.03;94093.81;5089927;28;20047;-76
2022/03/30 08:57:23;;;;;;;53.17;9.95;;;;;;;11.80;56.70;94094.44;5100992;28;20533;-78
2022/03/30 09:00:07;;;;;;;50.80;9.80;;;;;;;11.83;56.41;94093.81;5104989;28;20055;-75
2022/03/30 09:02:43;;;;;;;56.90;10.38;;;;;;;11.76;56.67;94093.50;5089310;28;20054;-76
2022/03/30 09:05:20;;;;;;;42.20;9.10;;;;;;;11.65;56.72;94097.53;5077175;28;20040;-75
2022/03/30 09:07:48;;;;;;;62.40;11.30;;;;;;;11.56;58.16;94095.66;5091237;28;20092;-75
2022/03/30 09:10:19;;;;;;;64.30;9.88;;;;;;;11.41;58.57;94098.78;5079505;28;20036;-76
2022/03/30 09:12:48;;;;;;;53.58;10.77;;;;;;;11.44;58.08;94095.50;5082876;28;20051;-77
2022/03/30 09:15:14;;;;;;;59.17;11.63;;;;;;;11.59;58.08;94083.72;5089964;28;20032;-79
2022/03/30 09:17:41;;;;;;;55.15;10.55;;;;;;;11.80;57.49;94089.16;5109371;28;20412;-78
2022/03/30 09:20:19;;;;;;;63.92;10.75;;;;;;;11.74;57.78;94096.44;5094018;28;20066;-76
2022/03/30 09:22:57;;;;;;;48.88;9.50;;;;;;;11.76;58.50;94088.22;5106136;28;20511;-77
2022/03/30 09:25:25;;;;;;;56.63;10.93;;;;;;;11.67;57.78;94084.84;5095420;28;20048;-75
2022/03/30 09:27:53;;;;;;;47.08;11.27;;;;;;;11.55;57.73;94082.78;5082103;28;20055;-76
2022/03/30 09:30:19;;;;;;;42.25;10.52;;;;;;;11.70;58.63;94079.69;5112228;28;20032;-76
2022/03/30 09:32:46;;;;;;;48.40;10.95;;;;;;;11.67;58.17;94079.56;5094041;28;20100;-77
2022/03/30 09:35:28;;;;;;;41.92;11.52;;;;;;;11.61;59.08;94077.06;5109748;28;20035;-77
2022/03/30 09:38:16;;;;;;;51.22;11.10;;;;;;;11.56;59.28;94079.84;5111433;28;20065;-76
2022/03/30 09:40:55;;;;;;;56.50;11.38;;;;;;;11.53;59.45;94079.72;5083415;28;20044;-76
2022/03/30 09:43:27;;;;;;;52.83;11.15;;;;;;;11.48;60.28;94080.63;5094550;28;20039;-76
2022/03/30 09:46:02;;;;;;;53.88;11.32;;;;;;;11.39;60.35;94085.13;5105719;28;20040;-76
2022/03/30 09:48:28;;;;;;;;;;;;;;;11.43;61.00;94075.50;5090689;28;20046;-76
2022/03/30 09:50:56;;;;;;;48.17;11.60;;;;;;;11.42;61.23;94084.50;5097704;28;19927;-76
2022/03/30 09:53:25;;;;;;;43.72;11.40;;;;;;;11.31;61.26;94075.38;5099845;28;20087;-76
2022/03/30 09:56:01;;;;;;;58.53;11.90;;;;;;;11.38;63.21;94067.78;5092199;28;20443;-76
2022/03/30 09:58:31;;;;;;;54.72;11.93;;;;;;;11.22;63.88;94070.84;5101549;28;20051;-76
2022/03/30 10:01:13;;;;;;;48.58;11.00;;;;;;;11.19;65.74;94074.13;5090063;28;20063;-75
2022/03/30 10:03:49;;;;;;;52.47;12.50;;;;;;;11.33;66.05;94070.56;5106500;28;20047;-74
2022/03/30 10:06:20;;;;;;;52.50;12.05;;;;;;;11.42;66.96;94079.22;5097426;28;20043;-74
2022/03/30 10:08:48;;;;;;;49.45;11.60;;;;;;;11.24;66.40;94073.94;5096323;28;20039;-74
2022/03/30 10:11:16;;;;;;;50.03;13.23;;;;;;;11.38;66.55;94067.78;5112307;28;20447;-75
2022/03/30 10:13:43;;;;;;;65.97;13.25;;;;;;;11.30;65.53;94060.63;5086045;28;20389;-74
2022/03/30 10:16:10;;;;;;;66.18;12.18;;;;;;;11.38;66.54;94062.50;5084472;28;20044;-75
2022/03/30 10:18:37;;;;;;;48.58;11.15;;;;;;;11.42;65.99;94063.41;5089631;28;20557;-75
2022/03/30 10:21:33;;;;;;;44.80;12.18;;;;;;;11.17;66.55;94057.84;5109768;28;20141;-74
2022/03/30 10:24:08;;;;;;;55.10;11.77;;;;;;;11.24;67.43;94047.63;5108966;27;20658;-74
2022/03/30 10:26:52;;;;;;;45.50;12.63;;;;;;;11.17;66.72;94042.03;5102411;28;20067;-74
2022/03/30 10:29:22;;;;;;;42.63;10.55;;;;;;;11.27;66.88;94047.00;5110689;28;20044;-74
2022/03/30 10:32:12;;;;;;;39.72;10.57;;;;;;;11.21;67.88;94042.97;5086906;28;20039;-74
2022/03/30 10:34:53;;;;;;;47.42;12.18;;;;;;;11.13;69.44;94046.34;5091063;28;20036;-74
2022/03/30 10:37:37;;;;;;;41.90;10.80;;;;;;;11.07;67.68;94042.34;5090998;28;20039;-76
2022/03/30 10:40:03;;;;;;;48.28;10.98;;;;;;;11.12;68.98;94044.84;5105661;28;20089;-77
2022/03/30 10:42:49;;;;;;;57.50;11.13;;;;;;;11.04;68.61;94035.06;5102227;28;20043;-77
2022/03/30 10:45:34;;;;;;;44.03;10.82;;;;;;;10.98;69.43;94038.94;5025766;28;20055;-76
2022/03/30 10:48:17;;;;;;;57.30;11.70;;;;;;;11.06;68.71;94035.50;5091032;28;20047;-75
2022/03/30 10:50:47;;;;;;;38.90;9.57;;;;;;;11.16;69.62;94034.44;5094295;28;20101;-75
2022/03/30 10:53:31;;;;;;;41.03;10.50;;;;;;;11.06;68.52;94031.03;5098815;28;20122;-74
2022/03/30 10:56:08;;;;;;;40.60;9.00;;;;;;;11.03;68.06;94022.97;5091319;28;20039;-75
2022/03/30 10:58:35;;;;;;;54.00;10.15;;;;;;;11.17;68.28;94023.59;5105810;28;20047;-75
2022/03/30 11:01:13;;;;;;;36.40;8.95;;;;;;;11.07;67.48;94021.28;5099783;28;20551;-75
2022/03/30 11:04:00;;;;;;;50.67;9.18;;;;;;;11.08;67.62;94022.84;5082677;28;20031;-75
2022/03/30 11:06:27;;;;;;;36.95;9.48;;;;;;;11.27;67.69;94020.66;5077132;28;20040;-74
2022/03/30 11:09:09;;;;;;;48.20;10.45;;;;;;;11.27;67.72;94015.38;5081555;28;20051;-76
2022/03/30 11:11:42;;;;;;;39.05;11.10;;;;;;;11.26;67.54;94008.59;5072880;28;20055;-74
2022/03/30 11:14:58;;;;;;;51.88;10.07;;;;;;;11.33;67.35;94009.97;5090099;28;20378;-75
2022/03/30 11:17:35;;;;;;;45.10;10.70;;;;;;;11.57;66.22;94002.38;5045007;28;20056;-76
2022/03/30 11:20:05;;;;;;;40.92;8.65;;;;;;;11.47;67.24;94002.69;5092936;28;20043;-78
2022/03/30 11:22:33;;;;;;;43.65;8.45;;;;;;;11.62;65.58;94004.06;5110399;28;20485;-76
2022/03/30 11:25:22;;;;;;;42.05;9.90;;;;;;;11.62;65.55;93993.53;5109836;28;20035;-75
2022/03/30 11:27:57;;;;;;;36.70;8.40;;;;;;;11.43;67.25;93993.84;5089379;28;20031;-77
2022/03/30 11:30:24;;;;;;;55.45;9.68;;;;;;;11.50;66.45;93996.78;5110841;27;20048;-77
2022/03/30 11:32:50;;;;;;;43.05;9.68;;;;;;;11.55;66.81;93998.50;5113274;28;20040;-75
2022/03/30 11:35:17;;;;;;;40.92;9.98;;;;;;;11.54;67.10;93989.06;5093565;28;20046;-77
2022/03/30 11:38:04;;;;;;;43.38;8.43;;;;;;;11.64;66.88;93985.31;5096030;27;20088;-77
2022/03/30 11:40:34;;;;;;;33.13;8.90;;;;;;;11.70;66.02;93978.81;5104811;28;20044;-78